ITY0275 ENGM-EGPF
Flight info
| Callsign | ITY0275 |
|---|---|
| Flight time | 1h 44m |
| Altitude | 36000 |
| Route | ATLAP DCT IPMOD DCT RIGVU DCT ADN/N0417F240 P600 PTH |
| Aircraft | A320/M-SDE3FGHIRWY/LB1 |
Departure
| Time | 2026-05-05 13:11 |
|---|---|
| Airport | Oslo-Gardermoen International Airport (ENGM) |
Arrival
| Time | 2026-05-05 14:56 |
|---|---|
| Airport | Glasgow Airport (EGPF) |
| Time | Latitude | Longitude | Altitude | Speed | Heading |
|---|---|---|---|---|---|
| 2026-05-05 12:50 | 60.19550 | 11.09500 | 680 ft | 0 kts | 196° |
| 2026-05-05 13:01 | 60.19569 | 11.09512 | 683 ft | 4 kts | 198° |
| 2026-05-05 13:01 | 60.19595 | 11.09529 | 678 ft | 4 kts | 201° |
| 2026-05-05 13:01 | 60.19620 | 11.09550 | 684 ft | 4 kts | 207° |
| 2026-05-05 13:01 | 60.19642 | 11.09579 | 680 ft | 4 kts | 229° |
| 2026-05-05 13:02 | 60.19651 | 11.09615 | 678 ft | 2 kts | 286° |
| 2026-05-05 13:02 | 60.19649 | 11.09625 | 678 ft | 1 kts | 286° |
| 2026-05-05 13:03 | 60.19650 | 11.09621 | 678 ft | 2 kts | 286° |
| 2026-05-05 13:04 | 60.19664 | 11.09524 | 682 ft | 12 kts | 286° |
| 2026-05-05 13:04 | 60.19695 | 11.09297 | 679 ft | 21 kts | 285° |
| 2026-05-05 13:04 | 60.19738 | 11.08998 | 681 ft | 23 kts | 286° |
| 2026-05-05 13:04 | 60.19771 | 11.08705 | 678 ft | 17 kts | 253° |
| 2026-05-05 13:05 | 60.19664 | 11.08609 | 678 ft | 18 kts | 195° |
| 2026-05-05 13:05 | 60.19541 | 11.08535 | 678 ft | 20 kts | 197° |
| 2026-05-05 13:05 | 60.19390 | 11.08449 | 676 ft | 25 kts | 196° |
| 2026-05-05 13:05 | 60.19212 | 11.08346 | 674 ft | 28 kts | 195° |
| 2026-05-05 13:06 | 60.19019 | 11.08240 | 673 ft | 29 kts | 196° |
| 2026-05-05 13:06 | 60.18821 | 11.08121 | 672 ft | 30 kts | 196° |
| 2026-05-05 13:06 | 60.18616 | 11.08004 | 670 ft | 31 kts | 195° |
| 2026-05-05 13:06 | 60.18412 | 11.07888 | 669 ft | 28 kts | 195° |
| 2026-05-05 13:07 | 60.18359 | 11.07698 | 663 ft | 18 kts | 296° |
| 2026-05-05 13:07 | 60.18411 | 11.07612 | 663 ft | 0 kts | 325° |
| 2026-05-05 13:09 | 60.18413 | 11.07609 | 662 ft | 2 kts | 325° |
| 2026-05-05 13:09 | 60.18443 | 11.07567 | 664 ft | 8 kts | 324° |
| 2026-05-05 13:09 | 60.18501 | 11.07481 | 665 ft | 12 kts | 323° |
| 2026-05-05 13:10 | 60.18567 | 11.07414 | 666 ft | 8 kts | 7° |
| 2026-05-05 13:10 | 60.18579 | 11.07420 | 666 ft | 0 kts | 15° |
| 2026-05-05 13:10 | 60.18587 | 11.07425 | 666 ft | 8 kts | 16° |
| 2026-05-05 13:10 | 60.18889 | 11.07599 | 668 ft | 81 kts | 16° |
| 2026-05-05 13:11 | 60.19629 | 11.08026 | 674 ft | 138 kts | 16° |
| 2026-05-05 13:11 | 60.20687 | 11.08623 | 844 ft | 164 kts | 14° |
| 2026-05-05 13:11 | 60.21767 | 11.09242 | 1543 ft | 162 kts | 10° |
| 2026-05-05 13:11 | 60.22870 | 11.09869 | 2119 ft | 172 kts | 10° |
| 2026-05-05 13:12 | 60.24098 | 11.10563 | 2440 ft | 194 kts | 11° |
| 2026-05-05 13:12 | 60.25487 | 11.11277 | 2701 ft | 217 kts | 3° |
| 2026-05-05 13:12 | 60.27048 | 11.11104 | 3078 ft | 237 kts | 349° |
| 2026-05-05 13:12 | 60.28687 | 11.10261 | 3742 ft | 247 kts | 330° |
| 2026-05-05 13:13 | 60.29997 | 11.08071 | 4637 ft | 247 kts | 304° |
| 2026-05-05 13:13 | 60.30635 | 11.04885 | 5531 ft | 249 kts | 277° |
| 2026-05-05 13:13 | 60.30456 | 11.01398 | 6401 ft | 255 kts | 257° |
| 2026-05-05 13:13 | 60.30008 | 10.97922 | 7278 ft | 257 kts | 257° |
| 2026-05-05 13:14 | 60.29558 | 10.94419 | 8104 ft | 261 kts | 257° |
| 2026-05-05 13:14 | 60.29105 | 10.90855 | 8991 ft | 264 kts | 257° |
| 2026-05-05 13:14 | 60.28649 | 10.87251 | 9858 ft | 267 kts | 257° |
| 2026-05-05 13:14 | 60.28181 | 10.83545 | 10332 ft | 283 kts | 257° |
| 2026-05-05 13:15 | 60.27677 | 10.79533 | 10599 ft | 305 kts | 257° |
| 2026-05-05 13:15 | 60.27145 | 10.75333 | 11195 ft | 313 kts | 258° |
| 2026-05-05 13:15 | 60.26602 | 10.71074 | 11991 ft | 315 kts | 258° |
| 2026-05-05 13:15 | 60.26052 | 10.66774 | 12755 ft | 319 kts | 258° |
| 2026-05-05 13:16 | 60.25501 | 10.62490 | 13546 ft | 321 kts | 258° |
| 2026-05-05 13:16 | 60.24938 | 10.58115 | 14239 ft | 323 kts | 258° |
| 2026-05-05 13:16 | 60.24372 | 10.53738 | 15003 ft | 323 kts | 258° |
| 2026-05-05 13:16 | 60.23807 | 10.49378 | 15799 ft | 321 kts | 258° |
| 2026-05-05 13:17 | 60.23241 | 10.45039 | 16600 ft | 320 kts | 257° |
| 2026-05-05 13:17 | 60.22675 | 10.40710 | 17420 ft | 319 kts | 257° |
| 2026-05-05 13:17 | 60.22109 | 10.36399 | 18211 ft | 318 kts | 257° |
| 2026-05-05 13:17 | 60.21546 | 10.32100 | 18862 ft | 317 kts | 257° |
| 2026-05-05 13:18 | 60.20988 | 10.27829 | 19572 ft | 315 kts | 257° |
| 2026-05-05 13:18 | 60.20433 | 10.23585 | 20287 ft | 313 kts | 257° |
| 2026-05-05 13:18 | 60.19880 | 10.19369 | 21001 ft | 311 kts | 257° |
| 2026-05-05 13:18 | 60.19325 | 10.15177 | 21720 ft | 310 kts | 257° |
| 2026-05-05 13:19 | 60.18770 | 10.10997 | 22390 ft | 308 kts | 257° |
| 2026-05-05 13:19 | 60.18217 | 10.06855 | 23059 ft | 307 kts | 257° |
| 2026-05-05 13:19 | 60.17663 | 10.02713 | 23632 ft | 307 kts | 258° |
| 2026-05-05 13:19 | 60.17116 | 9.98613 | 24032 ft | 311 kts | 258° |
| 2026-05-05 13:20 | 60.16549 | 9.94396 | 24417 ft | 313 kts | 257° |
| 2026-05-05 13:20 | 60.16008 | 9.90398 | 24807 ft | 315 kts | 257° |
| 2026-05-05 13:20 | 60.15407 | 9.85964 | 25211 ft | 318 kts | 257° |
| 2026-05-05 13:20 | 60.14820 | 9.81667 | 25603 ft | 321 kts | 256° |
| 2026-05-05 13:21 | 60.13949 | 9.77503 | 25990 ft | 328 kts | 248° |
| 2026-05-05 13:21 | 60.12938 | 9.73669 | 26323 ft | 330 kts | 248° |
| 2026-05-05 13:21 | 60.11871 | 9.69619 | 26670 ft | 332 kts | 248° |
| 2026-05-05 13:21 | 60.10804 | 9.65561 | 26933 ft | 334 kts | 248° |
| 2026-05-05 13:22 | 60.09726 | 9.61458 | 27320 ft | 334 kts | 248° |
| 2026-05-05 13:22 | 60.08690 | 9.57522 | 27699 ft | 335 kts | 248° |
| 2026-05-05 13:22 | 60.07655 | 9.53604 | 28050 ft | 337 kts | 248° |
| 2026-05-05 13:22 | 60.06555 | 9.49445 | 28379 ft | 339 kts | 248° |
| 2026-05-05 13:23 | 60.05449 | 9.45270 | 28686 ft | 341 kts | 248° |
| 2026-05-05 13:23 | 60.04333 | 9.41072 | 28962 ft | 342 kts | 248° |
| 2026-05-05 13:23 | 60.03236 | 9.36954 | 29221 ft | 344 kts | 248° |
| 2026-05-05 13:23 | 60.02105 | 9.32714 | 29497 ft | 347 kts | 248° |
| 2026-05-05 13:24 | 60.00963 | 9.28452 | 29846 ft | 349 kts | 248° |
| 2026-05-05 13:24 | 59.99814 | 9.24173 | 30072 ft | 351 kts | 248° |
| 2026-05-05 13:24 | 59.98661 | 9.19871 | 30275 ft | 353 kts | 248° |
| 2026-05-05 13:24 | 59.97496 | 9.15520 | 30483 ft | 356 kts | 248° |
| 2026-05-05 13:25 | 59.96381 | 9.11367 | 30668 ft | 358 kts | 247° |
| 2026-05-05 13:25 | 59.95196 | 9.06973 | 30850 ft | 361 kts | 247° |
| 2026-05-05 13:25 | 59.93997 | 9.02541 | 31040 ft | 364 kts | 247° |
| 2026-05-05 13:25 | 59.92791 | 8.98095 | 31286 ft | 365 kts | 247° |
| 2026-05-05 13:26 | 59.91582 | 8.93644 | 31530 ft | 366 kts | 247° |
| 2026-05-05 13:26 | 59.90365 | 8.89175 | 31775 ft | 367 kts | 247° |
| 2026-05-05 13:26 | 59.89165 | 8.84776 | 32046 ft | 368 kts | 246° |
| 2026-05-05 13:26 | 59.87941 | 8.80290 | 32287 ft | 369 kts | 246° |
| 2026-05-05 13:27 | 59.86713 | 8.75793 | 32462 ft | 371 kts | 246° |
| 2026-05-05 13:27 | 59.85476 | 8.71278 | 32723 ft | 372 kts | 246° |
| 2026-05-05 13:27 | 59.84254 | 8.66827 | 32969 ft | 372 kts | 246° |
| 2026-05-05 13:27 | 59.83012 | 8.62312 | 33211 ft | 373 kts | 246° |
| 2026-05-05 13:28 | 59.81759 | 8.57770 | 33456 ft | 374 kts | 246° |
| 2026-05-05 13:28 | 59.80522 | 8.53290 | 33657 ft | 375 kts | 246° |
| 2026-05-05 13:28 | 59.79263 | 8.48736 | 33921 ft | 376 kts | 245° |
| 2026-05-05 13:28 | 59.78001 | 8.44187 | 34139 ft | 376 kts | 245° |
| 2026-05-05 13:29 | 59.76732 | 8.39640 | 34344 ft | 377 kts | 245° |
| 2026-05-05 13:29 | 59.75459 | 8.35088 | 34546 ft | 378 kts | 245° |
| 2026-05-05 13:29 | 59.74265 | 8.30572 | 34727 ft | 377 kts | 250° |
| 2026-05-05 13:29 | 59.73438 | 8.25667 | 34903 ft | 375 kts | 258° |
| 2026-05-05 13:30 | 59.72817 | 8.20647 | 35058 ft | 376 kts | 258° |
| 2026-05-05 13:30 | 59.72188 | 8.15678 | 35230 ft | 377 kts | 257° |
| 2026-05-05 13:30 | 59.71540 | 8.10641 | 35426 ft | 378 kts | 257° |
| 2026-05-05 13:30 | 59.70885 | 8.05586 | 35588 ft | 379 kts | 257° |
| 2026-05-05 13:31 | 59.70228 | 8.00527 | 35751 ft | 380 kts | 257° |
| 2026-05-05 13:31 | 59.69566 | 7.95454 | 35915 ft | 381 kts | 257° |
| 2026-05-05 13:31 | 59.68253 | 7.85430 | 35975 ft | 380 kts | 257° |
| 2026-05-05 13:32 | 59.66920 | 7.75238 | 35995 ft | 385 kts | 257° |
| 2026-05-05 13:32 | 59.65604 | 7.65203 | 35988 ft | 385 kts | 257° |
| 2026-05-05 13:33 | 59.64241 | 7.54951 | 36005 ft | 386 kts | 257° |
| 2026-05-05 13:33 | 59.62870 | 7.44702 | 36006 ft | 386 kts | 257° |
| 2026-05-05 13:34 | 59.61509 | 7.34590 | 36011 ft | 386 kts | 257° |
| 2026-05-05 13:34 | 59.60118 | 7.24296 | 36017 ft | 386 kts | 257° |
| 2026-05-05 13:35 | 59.58744 | 7.14177 | 36001 ft | 387 kts | 256° |
| 2026-05-05 13:35 | 59.57341 | 7.03964 | 35991 ft | 388 kts | 256° |
| 2026-05-05 13:36 | 59.55918 | 6.93684 | 35988 ft | 389 kts | 256° |
| 2026-05-05 13:36 | 59.54527 | 6.83727 | 35993 ft | 390 kts | 256° |
| 2026-05-05 13:37 | 59.53089 | 6.73471 | 35998 ft | 391 kts | 256° |
| 2026-05-05 13:37 | 59.51640 | 6.63160 | 36002 ft | 391 kts | 256° |
| 2026-05-05 13:38 | 59.50189 | 6.52899 | 36005 ft | 391 kts | 256° |
| 2026-05-05 13:38 | 59.48724 | 6.42601 | 36038 ft | 391 kts | 256° |
| 2026-05-05 13:39 | 59.47251 | 6.32320 | 36037 ft | 390 kts | 256° |
| 2026-05-05 13:39 | 59.45768 | 6.22085 | 36032 ft | 389 kts | 256° |
| 2026-05-05 13:40 | 59.44274 | 6.11854 | 35987 ft | 389 kts | 256° |
| 2026-05-05 13:40 | 59.42783 | 6.01614 | 36000 ft | 390 kts | 256° |
| 2026-05-05 13:41 | 59.41287 | 5.91390 | 36015 ft | 390 kts | 256° |
| 2026-05-05 13:41 | 59.39778 | 5.81185 | 36022 ft | 389 kts | 256° |
| 2026-05-05 13:42 | 59.38252 | 5.70993 | 36015 ft | 389 kts | 256° |
| 2026-05-05 13:42 | 59.36715 | 5.60803 | 36025 ft | 389 kts | 256° |
| 2026-05-05 13:43 | 59.35185 | 5.50625 | 36029 ft | 389 kts | 256° |
| 2026-05-05 13:43 | 59.33660 | 5.40526 | 36030 ft | 389 kts | 256° |
| 2026-05-05 13:44 | 59.32109 | 5.30351 | 36015 ft | 391 kts | 255° |
| 2026-05-05 13:44 | 59.30536 | 5.20120 | 36009 ft | 393 kts | 255° |
| 2026-05-05 13:45 | 59.28951 | 5.09877 | 36014 ft | 394 kts | 255° |
| 2026-05-05 13:45 | 59.27355 | 4.99621 | 36017 ft | 394 kts | 255° |
| 2026-05-05 13:46 | 59.25751 | 4.89364 | 36020 ft | 395 kts | 255° |
| 2026-05-05 13:46 | 59.24136 | 4.79111 | 36025 ft | 395 kts | 255° |
| 2026-05-05 13:47 | 59.22515 | 4.68866 | 36011 ft | 395 kts | 255° |
| 2026-05-05 13:47 | 59.21157 | 4.60321 | 36022 ft | 396 kts | 255° |
| 2026-05-05 13:48 | 59.19250 | 4.48396 | 36041 ft | 397 kts | 255° |
| 2026-05-05 13:48 | 59.17600 | 4.38124 | 36043 ft | 397 kts | 255° |
| 2026-05-05 13:49 | 59.16224 | 4.29583 | 36042 ft | 397 kts | 255° |
| 2026-05-05 13:49 | 59.14271 | 4.17591 | 36046 ft | 397 kts | 255° |
| 2026-05-05 13:50 | 59.12869 | 4.09077 | 36047 ft | 397 kts | 255° |
| 2026-05-05 13:50 | 59.11182 | 3.98843 | 36053 ft | 397 kts | 255° |
| 2026-05-05 13:51 | 59.09488 | 3.88607 | 36053 ft | 397 kts | 255° |
| 2026-05-05 13:51 | 59.07787 | 3.78381 | 36041 ft | 397 kts | 255° |
| 2026-05-05 13:52 | 59.06078 | 3.68172 | 36046 ft | 397 kts | 254° |
| 2026-05-05 13:52 | 59.04356 | 3.57975 | 36051 ft | 397 kts | 254° |
| 2026-05-05 13:53 | 59.02629 | 3.47776 | 36044 ft | 397 kts | 254° |
| 2026-05-05 13:53 | 59.00901 | 3.37591 | 36051 ft | 398 kts | 254° |
| 2026-05-05 13:54 | 58.99157 | 3.27410 | 36047 ft | 398 kts | 254° |
| 2026-05-05 13:54 | 58.97402 | 3.17237 | 36025 ft | 398 kts | 254° |
| 2026-05-05 13:55 | 58.95642 | 3.07080 | 36031 ft | 398 kts | 254° |
| 2026-05-05 13:55 | 58.93880 | 2.96982 | 36045 ft | 398 kts | 254° |
| 2026-05-05 13:56 | 58.92092 | 2.86760 | 36053 ft | 398 kts | 254° |
| 2026-05-05 13:56 | 58.90312 | 2.76674 | 36056 ft | 399 kts | 253° |
| 2026-05-05 13:57 | 58.88515 | 2.66534 | 36059 ft | 399 kts | 253° |
| 2026-05-05 13:57 | 58.86713 | 2.56410 | 36061 ft | 399 kts | 253° |
| 2026-05-05 13:58 | 58.84900 | 2.46278 | 36070 ft | 399 kts | 253° |
| 2026-05-05 13:58 | 58.83083 | 2.36166 | 36072 ft | 399 kts | 253° |
| 2026-05-05 13:59 | 58.80330 | 2.21008 | 36076 ft | 399 kts | 253° |
| 2026-05-05 14:00 | 58.76623 | 2.06589 | 36076 ft | 403 kts | 243° |
| 2026-05-05 14:00 | 58.73767 | 1.97278 | 36080 ft | 403 kts | 243° |
| 2026-05-05 14:01 | 58.70900 | 1.87998 | 36065 ft | 403 kts | 243° |
| 2026-05-05 14:01 | 58.68032 | 1.78723 | 36072 ft | 404 kts | 243° |
| 2026-05-05 14:02 | 58.65157 | 1.69467 | 36078 ft | 404 kts | 243° |
| 2026-05-05 14:02 | 58.62295 | 1.60273 | 36081 ft | 404 kts | 243° |
| 2026-05-05 14:03 | 58.59413 | 1.51030 | 36085 ft | 404 kts | 243° |
| 2026-05-05 14:03 | 58.56514 | 1.41797 | 36091 ft | 404 kts | 243° |
| 2026-05-05 14:04 | 58.53599 | 1.32590 | 36091 ft | 404 kts | 243° |
| 2026-05-05 14:04 | 58.50682 | 1.23393 | 36086 ft | 404 kts | 242° |
| 2026-05-05 14:05 | 58.47764 | 1.14198 | 36089 ft | 404 kts | 242° |
| 2026-05-05 14:05 | 58.44841 | 1.05012 | 36064 ft | 405 kts | 242° |
| 2026-05-05 14:06 | 58.41906 | 0.95828 | 36073 ft | 405 kts | 242° |
| 2026-05-05 14:06 | 58.38978 | 0.86726 | 36082 ft | 405 kts | 242° |
| 2026-05-05 14:07 | 58.36018 | 0.77572 | 36091 ft | 406 kts | 242° |
| 2026-05-05 14:07 | 58.33053 | 0.68429 | 36098 ft | 406 kts | 242° |
| 2026-05-05 14:08 | 58.30089 | 0.59296 | 36091 ft | 406 kts | 242° |
| 2026-05-05 14:08 | 58.27109 | 0.50177 | 36094 ft | 406 kts | 242° |
| 2026-05-05 14:09 | 58.24105 | 0.41008 | 36100 ft | 406 kts | 242° |
| 2026-05-05 14:09 | 58.21111 | 0.31911 | 36102 ft | 406 kts | 242° |
| 2026-05-05 14:10 | 58.18134 | 0.22882 | 36068 ft | 407 kts | 241° |
| 2026-05-05 14:10 | 58.15124 | 0.13805 | 36082 ft | 407 kts | 241° |
| 2026-05-05 14:11 | 58.12107 | 0.04735 | 36095 ft | 407 kts | 241° |
| 2026-05-05 14:11 | 58.09082 | -0.04314 | 36103 ft | 407 kts | 241° |
| 2026-05-05 14:12 | 58.06042 | -0.13363 | 36106 ft | 408 kts | 241° |
| 2026-05-05 14:12 | 58.03002 | -0.22390 | 36112 ft | 408 kts | 241° |
| 2026-05-05 14:13 | 57.99950 | -0.31413 | 36108 ft | 408 kts | 240° |
| 2026-05-05 14:13 | 57.96899 | -0.40429 | 36110 ft | 408 kts | 240° |
| 2026-05-05 14:14 | 57.93841 | -0.49427 | 36115 ft | 408 kts | 240° |
| 2026-05-05 14:14 | 57.90776 | -0.58395 | 36086 ft | 408 kts | 240° |
| 2026-05-05 14:15 | 57.87691 | -0.67379 | 36091 ft | 408 kts | 240° |
| 2026-05-05 14:15 | 57.84604 | -0.76326 | 36098 ft | 409 kts | 240° |
| 2026-05-05 14:16 | 57.81505 | -0.85275 | 36104 ft | 409 kts | 240° |
| 2026-05-05 14:16 | 57.78409 | -0.94221 | 36109 ft | 409 kts | 240° |
| 2026-05-05 14:17 | 57.75300 | -1.03152 | 36114 ft | 409 kts | 240° |
| 2026-05-05 14:17 | 57.72180 | -1.12064 | 36115 ft | 409 kts | 240° |
| 2026-05-05 14:18 | 57.69062 | -1.20963 | 36119 ft | 409 kts | 240° |
| 2026-05-05 14:18 | 57.65924 | -1.29855 | 36117 ft | 410 kts | 239° |
| 2026-05-05 14:19 | 57.62785 | -1.38728 | 36079 ft | 410 kts | 239° |
| 2026-05-05 14:19 | 57.59637 | -1.47615 | 36093 ft | 411 kts | 239° |
| 2026-05-05 14:20 | 57.56480 | -1.56492 | 36106 ft | 411 kts | 239° |
| 2026-05-05 14:20 | 57.53315 | -1.65356 | 36103 ft | 411 kts | 239° |
| 2026-05-05 14:21 | 57.50137 | -1.74192 | 36117 ft | 412 kts | 239° |
| 2026-05-05 14:21 | 57.46949 | -1.83034 | 36105 ft | 412 kts | 239° |
| 2026-05-05 14:22 | 57.43767 | -1.91834 | 36110 ft | 412 kts | 239° |
| 2026-05-05 14:22 | 57.40578 | -2.00642 | 36106 ft | 412 kts | 239° |
| 2026-05-05 14:23 | 57.37468 | -2.09178 | 35491 ft | 410 kts | 239° |
| 2026-05-05 14:23 | 57.35869 | -2.13549 | 34786 ft | 409 kts | 238° |
| 2026-05-05 14:23 | 57.34275 | -2.17901 | 34108 ft | 408 kts | 238° |
| 2026-05-05 14:24 | 57.32676 | -2.22249 | 33307 ft | 408 kts | 237° |
| 2026-05-05 14:24 | 57.30865 | -2.26316 | 32465 ft | 412 kts | 229° |
| 2026-05-05 14:24 | 57.28702 | -2.29787 | 31809 ft | 413 kts | 220° |
| 2026-05-05 14:24 | 57.26354 | -2.32828 | 31208 ft | 409 kts | 219° |
| 2026-05-05 14:25 | 57.24039 | -2.35823 | 30631 ft | 405 kts | 219° |
| 2026-05-05 14:25 | 57.21745 | -2.38803 | 30021 ft | 401 kts | 219° |
| 2026-05-05 14:25 | 57.19468 | -2.41761 | 29362 ft | 398 kts | 219° |
| 2026-05-05 14:25 | 57.17215 | -2.44682 | 28726 ft | 395 kts | 219° |
| 2026-05-05 14:26 | 57.14981 | -2.47577 | 28116 ft | 391 kts | 219° |
| 2026-05-05 14:26 | 57.12761 | -2.50450 | 27514 ft | 388 kts | 219° |
| 2026-05-05 14:26 | 57.10561 | -2.53285 | 26924 ft | 385 kts | 219° |
| 2026-05-05 14:26 | 57.08377 | -2.56096 | 26326 ft | 382 kts | 219° |
| 2026-05-05 14:27 | 57.06233 | -2.58855 | 25753 ft | 380 kts | 219° |
| 2026-05-05 14:27 | 57.04039 | -2.61679 | 25193 ft | 378 kts | 219° |
| 2026-05-05 14:27 | 57.01918 | -2.64403 | 24666 ft | 376 kts | 219° |
| 2026-05-05 14:27 | 56.99782 | -2.67135 | 24153 ft | 374 kts | 219° |
| 2026-05-05 14:28 | 56.97652 | -2.69851 | 23643 ft | 371 kts | 219° |
| 2026-05-05 14:28 | 56.95539 | -2.72548 | 23087 ft | 369 kts | 219° |
| 2026-05-05 14:28 | 56.93433 | -2.75228 | 22539 ft | 367 kts | 219° |
| 2026-05-05 14:28 | 56.91340 | -2.77885 | 22017 ft | 365 kts | 219° |
| 2026-05-05 14:29 | 56.89263 | -2.80519 | 21498 ft | 362 kts | 219° |
| 2026-05-05 14:29 | 56.87197 | -2.83140 | 21005 ft | 360 kts | 219° |
| 2026-05-05 14:29 | 56.85145 | -2.85742 | 20501 ft | 358 kts | 219° |
| 2026-05-05 14:29 | 56.83101 | -2.88326 | 20001 ft | 356 kts | 219° |
| 2026-05-05 14:30 | 56.81069 | -2.90888 | 19529 ft | 354 kts | 219° |
| 2026-05-05 14:30 | 56.79050 | -2.93433 | 18998 ft | 352 kts | 218° |
| 2026-05-05 14:30 | 56.77041 | -2.95976 | 18544 ft | 351 kts | 218° |
| 2026-05-05 14:30 | 56.75042 | -2.98507 | 18048 ft | 349 kts | 218° |
| 2026-05-05 14:31 | 56.73047 | -3.01019 | 17554 ft | 347 kts | 218° |
| 2026-05-05 14:31 | 56.71064 | -3.03503 | 17060 ft | 345 kts | 218° |
| 2026-05-05 14:31 | 56.69093 | -3.05965 | 16582 ft | 343 kts | 218° |
| 2026-05-05 14:31 | 56.67134 | -3.08411 | 16118 ft | 341 kts | 218° |
| 2026-05-05 14:32 | 56.65184 | -3.10844 | 15687 ft | 339 kts | 218° |
| 2026-05-05 14:32 | 56.63268 | -3.13235 | 15250 ft | 337 kts | 218° |
| 2026-05-05 14:32 | 56.61316 | -3.15674 | 14805 ft | 335 kts | 218° |
| 2026-05-05 14:32 | 56.59421 | -3.18041 | 14371 ft | 334 kts | 218° |
| 2026-05-05 14:33 | 56.57491 | -3.20448 | 13949 ft | 332 kts | 218° |
| 2026-05-05 14:33 | 56.55592 | -3.22816 | 13471 ft | 330 kts | 218° |
| 2026-05-05 14:33 | 56.53724 | -3.25143 | 13002 ft | 329 kts | 218° |
| 2026-05-05 14:33 | 56.51838 | -3.27486 | 12517 ft | 326 kts | 218° |
| 2026-05-05 14:34 | 56.49966 | -3.29798 | 12057 ft | 325 kts | 218° |
| 2026-05-05 14:34 | 56.48136 | -3.32050 | 11604 ft | 323 kts | 217° |
| 2026-05-05 14:34 | 56.46283 | -3.34326 | 11188 ft | 321 kts | 217° |
| 2026-05-05 14:34 | 56.45056 | -3.35835 | 11087 ft | 321 kts | 217° |
| 2026-05-05 14:35 | 56.42595 | -3.38908 | 11098 ft | 322 kts | 219° |
| 2026-05-05 14:35 | 56.41385 | -3.40468 | 11104 ft | 322 kts | 219° |
| 2026-05-05 14:35 | 56.39569 | -3.42840 | 11070 ft | 321 kts | 219° |
| 2026-05-05 14:35 | 56.37181 | -3.45972 | 10465 ft | 319 kts | 219° |
| 2026-05-05 14:36 | 56.35971 | -3.47557 | 10119 ft | 319 kts | 219° |
| 2026-05-05 14:36 | 56.34194 | -3.49866 | 9920 ft | 309 kts | 219° |
| 2026-05-05 14:36 | 56.32480 | -3.52074 | 9776 ft | 297 kts | 219° |
| 2026-05-05 14:36 | 56.30826 | -3.54197 | 9607 ft | 287 kts | 219° |
| 2026-05-05 14:37 | 56.28696 | -3.56939 | 9169 ft | 283 kts | 219° |
| 2026-05-05 14:37 | 56.27616 | -3.58333 | 8901 ft | 282 kts | 219° |
| 2026-05-05 14:37 | 56.26030 | -3.60378 | 8510 ft | 280 kts | 219° |
| 2026-05-05 14:37 | 56.24448 | -3.62410 | 8112 ft | 278 kts | 219° |
| 2026-05-05 14:38 | 56.22900 | -3.64392 | 7764 ft | 274 kts | 219° |
| 2026-05-05 14:38 | 56.21356 | -3.66376 | 7385 ft | 273 kts | 218° |
| 2026-05-05 14:38 | 56.19859 | -3.68456 | 6997 ft | 270 kts | 227° |
| 2026-05-05 14:38 | 56.18643 | -3.70963 | 6611 ft | 266 kts | 235° |
| 2026-05-05 14:39 | 56.17530 | -3.73619 | 6197 ft | 265 kts | 236° |
| 2026-05-05 14:39 | 56.16419 | -3.76242 | 6045 ft | 264 kts | 234° |
| 2026-05-05 14:39 | 56.15327 | -3.78807 | 5906 ft | 253 kts | 234° |
| 2026-05-05 14:39 | 56.14273 | -3.81279 | 5773 ft | 248 kts | 234° |
| 2026-05-05 14:40 | 56.13224 | -3.83736 | 5634 ft | 248 kts | 234° |
| 2026-05-05 14:40 | 56.12147 | -3.86144 | 5515 ft | 248 kts | 232° |
| 2026-05-05 14:40 | 56.11046 | -3.88526 | 5374 ft | 249 kts | 232° |
| 2026-05-05 14:40 | 56.09940 | -3.90900 | 5242 ft | 248 kts | 232° |
| 2026-05-05 14:41 | 56.08830 | -3.93278 | 5111 ft | 249 kts | 231° |
| 2026-05-05 14:41 | 56.07725 | -3.95646 | 4986 ft | 248 kts | 231° |
| 2026-05-05 14:41 | 56.06617 | -3.98019 | 4851 ft | 249 kts | 231° |
| 2026-05-05 14:41 | 56.05511 | -4.00390 | 4717 ft | 248 kts | 231° |
| 2026-05-05 14:42 | 56.04402 | -4.02767 | 4586 ft | 248 kts | 231° |
| 2026-05-05 14:42 | 56.03295 | -4.05137 | 4444 ft | 248 kts | 231° |
| 2026-05-05 14:42 | 56.02189 | -4.07506 | 4317 ft | 248 kts | 230° |
| 2026-05-05 14:42 | 56.01086 | -4.09869 | 4169 ft | 247 kts | 230° |
| 2026-05-05 14:43 | 55.99981 | -4.12240 | 4047 ft | 249 kts | 230° |
| 2026-05-05 14:43 | 55.98875 | -4.14608 | 3918 ft | 248 kts | 230° |
| 2026-05-05 14:43 | 55.97760 | -4.16993 | 3781 ft | 251 kts | 230° |
| 2026-05-05 14:43 | 55.96644 | -4.19377 | 3653 ft | 249 kts | 229° |
| 2026-05-05 14:44 | 55.95530 | -4.21756 | 3526 ft | 248 kts | 230° |
| 2026-05-05 14:44 | 55.94434 | -4.24093 | 3401 ft | 249 kts | 229° |
| 2026-05-05 14:44 | 55.93318 | -4.26471 | 3272 ft | 251 kts | 229° |
| 2026-05-05 14:44 | 55.92202 | -4.28852 | 3135 ft | 251 kts | 228° |
| 2026-05-05 14:45 | 55.91074 | -4.31250 | 3019 ft | 254 kts | 229° |
| 2026-05-05 14:45 | 55.89951 | -4.33637 | 3005 ft | 251 kts | 227° |
| 2026-05-05 14:45 | 55.88825 | -4.36026 | 3008 ft | 249 kts | 229° |
| 2026-05-05 14:45 | 55.87710 | -4.38388 | 3008 ft | 250 kts | 228° |
| 2026-05-05 14:46 | 55.86583 | -4.40767 | 3009 ft | 251 kts | 228° |
| 2026-05-05 14:46 | 55.85452 | -4.43154 | 3013 ft | 254 kts | 227° |
| 2026-05-05 14:46 | 55.84315 | -4.45557 | 3013 ft | 253 kts | 228° |
| 2026-05-05 14:46 | 55.83188 | -4.47942 | 3006 ft | 250 kts | 229° |
| 2026-05-05 14:47 | 55.82104 | -4.50239 | 3003 ft | 235 kts | 228° |
| 2026-05-05 14:47 | 55.81085 | -4.52368 | 2996 ft | 218 kts | 225° |
| 2026-05-05 14:47 | 55.79936 | -4.54131 | 3019 ft | 219 kts | 217° |
| 2026-05-05 14:47 | 55.78704 | -4.55700 | 3011 ft | 220 kts | 213° |
| 2026-05-05 14:48 | 55.77440 | -4.57234 | 3009 ft | 218 kts | 213° |
| 2026-05-05 14:48 | 55.76227 | -4.58705 | 3003 ft | 204 kts | 213° |
| 2026-05-05 14:48 | 55.75074 | -4.60119 | 3029 ft | 199 kts | 213° |
| 2026-05-05 14:48 | 55.73960 | -4.61500 | 3014 ft | 197 kts | 214° |
| 2026-05-05 14:49 | 55.72846 | -4.62888 | 2994 ft | 197 kts | 214° |
| 2026-05-05 14:49 | 55.71731 | -4.64283 | 2996 ft | 198 kts | 214° |
| 2026-05-05 14:49 | 55.70607 | -4.65696 | 2997 ft | 197 kts | 215° |
| 2026-05-05 14:49 | 55.69529 | -4.67201 | 2993 ft | 198 kts | 230° |
| 2026-05-05 14:50 | 55.69029 | -4.69370 | 2984 ft | 189 kts | 270° |
| 2026-05-05 14:50 | 55.69326 | -4.71562 | 2974 ft | 183 kts | 306° |
| 2026-05-05 14:50 | 55.70339 | -4.72779 | 2982 ft | 179 kts | 354° |
| 2026-05-05 14:50 | 55.71513 | -4.72345 | 2981 ft | 176 kts | 37° |
| 2026-05-05 14:51 | 55.72364 | -4.70778 | 2990 ft | 179 kts | 46° |
| 2026-05-05 14:51 | 55.73229 | -4.69219 | 2988 ft | 178 kts | 46° |
| 2026-05-05 14:51 | 55.74087 | -4.67658 | 3003 ft | 175 kts | 46° |
| 2026-05-05 14:51 | 55.74941 | -4.66087 | 2999 ft | 176 kts | 46° |
| 2026-05-05 14:52 | 55.75799 | -4.64503 | 2988 ft | 179 kts | 47° |
| 2026-05-05 14:52 | 55.76659 | -4.62913 | 2845 ft | 176 kts | 47° |
| 2026-05-05 14:52 | 55.77492 | -4.61370 | 2630 ft | 171 kts | 47° |
| 2026-05-05 14:52 | 55.78301 | -4.59872 | 2405 ft | 167 kts | 47° |
| 2026-05-05 14:53 | 55.79111 | -4.58370 | 2177 ft | 166 kts | 47° |
| 2026-05-05 14:53 | 55.79897 | -4.56910 | 1961 ft | 164 kts | 47° |
| 2026-05-05 14:53 | 55.80686 | -4.55445 | 1733 ft | 164 kts | 46° |
| 2026-05-05 14:53 | 55.81475 | -4.53981 | 1496 ft | 165 kts | 47° |
| 2026-05-05 14:54 | 55.82238 | -4.52563 | 1272 ft | 153 kts | 47° |
| 2026-05-05 14:54 | 55.82947 | -4.51243 | 1063 ft | 141 kts | 49° |
| 2026-05-05 14:54 | 55.83597 | -4.50035 | 888 ft | 130 kts | 49° |
| 2026-05-05 14:54 | 55.84223 | -4.48870 | 691 ft | 128 kts | 49° |
| 2026-05-05 14:55 | 55.84845 | -4.47710 | 513 ft | 129 kts | 47° |
| 2026-05-05 14:55 | 55.85458 | -4.46577 | 335 ft | 127 kts | 49° |
| 2026-05-05 14:55 | 55.86069 | -4.45446 | 159 ft | 126 kts | 50° |
| 2026-05-05 14:55 | 55.86651 | -4.44339 | 46 ft | 115 kts | 50° |
| 2026-05-05 14:56 | 55.87093 | -4.43509 | 38 ft | 68 kts | 46° |
| 2026-05-05 14:56 | 55.87348 | -4.43029 | 33 ft | 46 kts | 46° |
| 2026-05-05 14:56 | 55.87544 | -4.42665 | 39 ft | 35 kts | 47° |
| 2026-05-05 14:56 | 55.87696 | -4.42379 | 36 ft | 30 kts | 46° |
| 2026-05-05 14:57 | 55.87730 | -4.42191 | 31 ft | 16 kts | 128° |
| 2026-05-05 14:57 | 55.87625 | -4.42171 | 30 ft | 15 kts | 205° |
| 2026-05-05 14:57 | 55.87553 | -4.42277 | 33 ft | 13 kts | 227° |
| 2026-05-05 14:57 | 55.87497 | -4.42381 | 34 ft | 11 kts | 225° |
| 2026-05-05 14:58 | 55.87431 | -4.42509 | 34 ft | 18 kts | 228° |
| 2026-05-05 14:58 | 55.87309 | -4.42633 | 34 ft | 20 kts | 199° |
| 2026-05-05 14:58 | 55.87182 | -4.42716 | 33 ft | 19 kts | 202° |
| 2026-05-05 14:58 | 55.87059 | -4.42799 | 33 ft | 18 kts | 199° |
| 2026-05-05 14:59 | 55.86947 | -4.42885 | 31 ft | 17 kts | 206° |
| 2026-05-05 14:59 | 55.86849 | -4.42968 | 33 ft | 11 kts | 204° |
| 2026-05-05 14:59 | 55.86777 | -4.42977 | 33 ft | 11 kts | 166° |
| 2026-05-05 14:59 | 55.86721 | -4.42961 | 33 ft | 5 kts | 204° |
| 2026-05-05 15:00 | 55.86708 | -4.43012 | 33 ft | 4 kts | 255° |
| 2026-05-05 15:00 | 55.86705 | -4.43030 | 33 ft | 0 kts | 254° |